createdAt,value
2022-07-25T00:00:34.160Z,96926.16
2022-07-25T00:03:02.708Z,96930.84
2022-07-25T00:05:37.605Z,96926.88
2022-07-25T00:08:06.671Z,96934.28
2022-07-25T00:10:34.712Z,96929.91
2022-07-25T00:13:02.847Z,96926.38
2022-07-25T00:15:31.128Z,96929.09
2022-07-25T00:17:59.159Z,96921.19
2022-07-25T00:20:27.270Z,96916.00
2022-07-25T00:22:56.682Z,96911.66
2022-07-25T00:25:24.723Z,96914.72
2022-07-25T00:27:53.020Z,96914.66
2022-07-25T00:30:21.114Z,96913.84
2022-07-25T00:32:49.239Z,96912.19
2022-07-25T00:35:17.293Z,96906.72
2022-07-25T00:37:45.371Z,96909.06
2022-07-25T00:40:15.113Z,96905.88
2022-07-25T00:42:43.159Z,96910.56
2022-07-25T00:45:11.922Z,96914.84
2022-07-25T00:47:39.945Z,96905.06
2022-07-25T00:50:09.182Z,96900.75
2022-07-25T00:52:37.470Z,96906.56
2022-07-25T00:55:06.444Z,96901.03
2022-07-25T00:57:36.046Z,96892.78
2022-07-25T01:00:07.120Z,96896.25
2022-07-25T01:02:35.365Z,96881.72
2022-07-25T01:05:03.694Z,96879.72
2022-07-25T01:07:32.091Z,96878.09
2022-07-25T01:10:00.610Z,96881.94
2022-07-25T01:12:28.984Z,96875.59
2022-07-25T01:14:58.520Z,96868.47
2022-07-25T01:17:26.613Z,96872.72
2022-07-25T01:19:54.638Z,96876.59
2022-07-25T01:22:23.987Z,96881.63
2022-07-25T01:24:51.994Z,96875.38
2022-07-25T01:27:20.083Z,96876.91
2022-07-25T01:29:48.107Z,96878.84
2022-07-25T01:32:16.148Z,96870.22
2022-07-25T01:34:44.164Z,96873.72
2022-07-25T01:37:12.220Z,96865.50
2022-07-25T01:39:41.599Z,96867.03
2022-07-25T01:42:09.718Z,96868.16
2022-07-25T01:44:37.729Z,96865.81
2022-07-25T01:47:06.169Z,96865.81
2022-07-25T01:49:34.763Z,96867.78
2022-07-25T01:52:02.821Z,96861.09
2022-07-25T01:54:30.900Z,96866.56
2022-07-25T01:57:01.398Z,96868.88
2022-07-25T01:59:29.803Z,96857.09
2022-07-25T02:01:57.976Z,96860.16
2022-07-25T02:04:26.117Z,96866.41
2022-07-25T02:06:54.157Z,96858.16
2022-07-25T02:09:22.260Z,96852.28
2022-07-25T02:11:50.340Z,96847.13
2022-07-25T02:14:19.840Z,96843.53
2022-07-25T02:16:47.950Z,96841.91
2022-07-25T02:19:16.098Z,96835.97
2022-07-25T02:21:44.372Z,96837.84
2022-07-25T02:24:12.541Z,96834.25
2022-07-25T02:26:40.583Z,96833.00
2022-07-25T02:29:08.871Z,96833.75
2022-07-25T02:31:38.555Z,96832.53
2022-07-25T02:34:07.140Z,96827.44
2022-07-25T02:36:35.447Z,96819.19
2022-07-25T02:39:03.647Z,96828.91
2022-07-25T02:41:56.477Z,96822.59
2022-07-25T02:44:24.625Z,96821.75
2022-07-25T02:46:54.017Z,96823.69
2022-07-25T02:49:22.300Z,96821.31
2022-07-25T02:51:50.468Z,96814.66
2022-07-25T02:54:20.118Z,96828.22
2022-07-25T02:56:48.186Z,96824.72
2022-07-25T02:59:16.314Z,96826.25
2022-07-25T03:01:44.479Z,96826.25
2022-07-25T03:04:14.031Z,96824.25
2022-07-25T03:06:44.663Z,96832.81
2022-07-25T03:09:12.776Z,96831.22
2022-07-25T03:11:40.803Z,96826.13
2022-07-25T03:14:09.803Z,96832.38
2022-07-25T03:16:38.310Z,96828.03
2022-07-25T03:19:10.299Z,96832.31
2022-07-25T03:21:40.020Z,96824.41
2022-07-25T03:24:08.886Z,96831.41
2022-07-25T03:26:37.242Z,96831.34
2022-07-25T03:29:05.411Z,96837.53
2022-07-25T03:31:34.593Z,96834.38
2022-07-25T03:34:03.191Z,96831.22
2022-07-25T03:36:31.499Z,96836.69
2022-07-25T03:39:01.203Z,96835.09
2022-07-25T03:41:33.652Z,96826.00
2022-07-25T03:44:01.720Z,96834.75
2022-07-25T03:46:29.949Z,96829.22
2022-07-25T03:48:58.185Z,96828.44
2022-07-25T03:51:26.347Z,96823.25
2022-07-25T03:54:03.828Z,96824.34
2022-07-25T03:56:43.665Z,96826.50
2022-07-25T03:59:13.794Z,96826.88
2022-07-25T04:01:43.142Z,96825.66
2022-07-25T04:04:11.801Z,96822.94
2022-07-25T04:06:40.864Z,96820.19
2022-07-25T04:09:10.222Z,96826.81
2022-07-25T04:11:40.519Z,96827.53
2022-07-25T04:14:09.184Z,96822.78
2022-07-25T04:16:37.714Z,96827.81
2022-07-25T04:19:08.732Z,96823.88
2022-07-25T04:21:36.886Z,96815.97
2022-07-25T04:24:05.449Z,96819.06
2022-07-25T04:26:33.923Z,96814.34
2022-07-25T04:29:04.035Z,96809.59
2022-07-25T04:31:32.192Z,96809.19
2022-07-25T04:34:01.119Z,96809.94
2022-07-25T04:36:29.858Z,96809.44
2022-07-25T04:38:57.967Z,96805.94
2022-07-25T04:41:26.052Z,96814.47
2022-07-25T04:43:54.163Z,96811.75
2022-07-25T04:46:24.099Z,96810.88
2022-07-25T04:48:52.433Z,96811.59
2022-07-25T04:51:20.512Z,96817.75
2022-07-25T04:53:48.578Z,96815.41
2022-07-25T04:56:16.887Z,96815.41
2022-07-25T04:58:45.142Z,96809.97
2022-07-25T05:01:13.447Z,96807.59
2022-07-25T05:03:49.833Z,96806.00
2022-07-25T05:06:19.576Z,96814.63
2022-07-25T05:08:47.972Z,96808.44
2022-07-25T05:11:16.060Z,96802.28
2022-07-25T05:13:44.131Z,96796.84
2022-07-25T05:16:12.247Z,96796.91
2022-07-25T05:18:40.536Z,96794.59
2022-07-25T05:21:12.833Z,96794.66
2022-07-25T05:23:41.007Z,96795.09
2022-07-25T05:26:09.379Z,96792.44
2022-07-25T05:28:37.509Z,96799.56
2022-07-25T05:31:05.825Z,96794.13
2022-07-25T05:33:35.199Z,96794.16
2022-07-25T05:36:05.199Z,96796.59
2022-07-25T05:38:34.716Z,96795.09
2022-07-25T05:41:02.763Z,96786.19
2022-07-25T05:43:30.874Z,96797.59
2022-07-25T05:46:02.206Z,96787.81
2022-07-25T05:48:30.360Z,96794.16
2022-07-25T05:50:59.454Z,96792.72
2022-07-25T05:53:27.538Z,96785.38
2022-07-25T05:55:57.041Z,96791.28
2022-07-25T05:58:29.741Z,96796.41
2022-07-25T06:00:58.727Z,96788.72
2022-07-25T06:03:26.941Z,96781.38
2022-07-25T06:05:56.511Z,96779.59
2022-07-25T06:08:24.928Z,96783.56
2022-07-25T06:10:53.100Z,96785.59
2022-07-25T06:13:23.619Z,96786.06
2022-07-25T06:15:51.882Z,96786.59
2022-07-25T06:18:20.126Z,96781.88
2022-07-25T06:20:48.871Z,96782.41
2022-07-25T06:23:17.055Z,96771.94
2022-07-25T06:25:49.944Z,96772.44
2022-07-25T06:28:19.022Z,96776.34
2022-07-25T06:30:49.677Z,96768.25
2022-07-25T06:33:17.790Z,96774.16
2022-07-25T06:35:45.885Z,96770.38
2022-07-25T06:38:14.005Z,96764.22
2022-07-25T06:40:42.061Z,96755.72
2022-07-25T06:43:10.427Z,96750.72
2022-07-25T06:45:38.491Z,96746.97
2022-07-25T06:48:08.437Z,96745.91
2022-07-25T06:50:36.549Z,96745.16
2022-07-25T06:53:04.691Z,96744.09
2022-07-25T06:55:33.006Z,96737.50
2022-07-25T06:58:01.099Z,96747.03
2022-07-25T07:00:29.574Z,96736.13
2022-07-25T07:03:01.404Z,96728.03
2022-07-25T07:05:32.829Z,96732.78
2022-07-25T07:08:01.756Z,96730.94
2022-07-25T07:10:29.938Z,96729.81
2022-07-25T07:13:07.842Z,96731.16
2022-07-25T07:15:36.794Z,96734.72
2022-07-25T07:18:06.370Z,96724.25
2022-07-25T07:20:36.385Z,96725.91
2022-07-25T07:23:04.513Z,96731.44
2022-07-25T07:25:34.688Z,96729.97
2022-07-25T07:28:03.244Z,96724.94
2022-07-25T07:30:58.320Z,96730.09
2022-07-25T07:33:19.664Z,96730.16
2022-07-25T07:35:49.141Z,96730.19
2022-07-25T07:38:18.024Z,96725.63
2022-07-25T07:40:46.103Z,96728.41
2022-07-25T07:43:14.191Z,96724.97
2022-07-25T07:45:43.159Z,96714.78
2022-07-25T07:48:11.330Z,96721.53
2022-07-25T07:50:39.404Z,96711.41
2022-07-25T07:53:08.828Z,96705.53
2022-07-25T07:55:45.340Z,96710.28
2022-07-25T07:58:15.730Z,96711.16
2022-07-25T08:00:44.370Z,96708.81
2022-07-25T08:03:12.527Z,96704.16
2022-07-25T08:05:43.223Z,96700.63
2022-07-25T08:08:14.010Z,96704.56
2022-07-25T08:10:44.223Z,96710.06
2022-07-25T08:13:16.636Z,96708.53
2022-07-25T08:15:46.669Z,96710.16
2022-07-25T08:18:17.654Z,96708.97
2022-07-25T08:20:46.392Z,96701.91
2022-07-25T08:23:15.902Z,96707.41
2022-07-25T08:25:44.351Z,96702.69
2022-07-25T08:28:12.821Z,96699.53
2022-07-25T08:30:42.170Z,96701.47
2022-07-25T08:33:13.414Z,96699.50
2022-07-25T08:35:42.048Z,96688.53
2022-07-25T08:38:11.644Z,96687.69
2022-07-25T08:40:41.340Z,96695.53
2022-07-25T08:43:12.892Z,96686.91
2022-07-25T08:45:45.913Z,96686.50
2022-07-25T08:48:14.478Z,96688.81
2022-07-25T08:50:42.635Z,96686.03
2022-07-25T08:53:32.038Z,96684.44
2022-07-25T08:56:00.235Z,96677.72
2022-07-25T08:58:28.344Z,96679.25
2022-07-25T09:00:58.249Z,96673.31
2022-07-25T09:03:28.843Z,96676.00
2022-07-25T09:05:56.951Z,96670.81
2022-07-25T09:08:25.087Z,96670.75
2022-07-25T09:10:54.267Z,96662.06
2022-07-25T09:13:24.142Z,96659.63
2022-07-25T09:15:53.838Z,96672.16
2022-07-25T09:18:24.855Z,96664.66
2022-07-25T09:20:54.736Z,96667.28
2022-07-25T09:23:30.580Z,96671.97
2022-07-25T09:26:05.885Z,96666.72
2022-07-25T09:28:42.376Z,96669.69
2022-07-25T09:31:10.777Z,96667.69
2022-07-25T09:33:47.713Z,96668.84
2022-07-25T09:36:16.100Z,96666.41
2022-07-25T09:38:53.605Z,96661.97
2022-07-25T09:41:21.824Z,96662.25
2022-07-25T09:43:51.278Z,96653.88
2022-07-25T09:46:19.644Z,96651.06
2022-07-25T09:48:58.220Z,96655.19
2022-07-25T09:51:26.758Z,96644.94
2022-07-25T09:53:54.794Z,96644.06
2022-07-25T09:56:48.082Z,96640.75
2022-07-25T09:59:17.579Z,96641.00
2022-07-25T10:01:50.869Z,96635.47
2022-07-25T10:04:23.278Z,96631.88
2022-07-25T10:06:56.150Z,96626.91
2022-07-25T10:09:24.852Z,96631.47
2022-07-25T10:12:06.259Z,96627.81
2022-07-25T10:14:36.194Z,96620.25
2022-07-25T10:17:04.791Z,96618.56
2022-07-25T10:19:49.191Z,96626.25
2022-07-25T10:22:34.285Z,96616.97
2022-07-25T10:25:14.993Z,96611.50
2022-07-25T10:28:10.115Z,96610.97
2022-07-25T10:30:41.485Z,96621.47
2022-07-25T10:33:13.388Z,96607.78
2022-07-25T10:35:43.903Z,96606.28
2022-07-25T10:38:12.180Z,96605.63
2022-07-25T10:40:42.441Z,96605.63
2022-07-25T10:43:13.644Z,96598.44
2022-07-25T10:45:51.119Z,96597.44
2022-07-25T10:48:23.246Z,96598.81
2022-07-25T10:50:55.924Z,96585.69
2022-07-25T10:53:39.421Z,96586.75
2022-07-25T10:56:09.801Z,96590.38
2022-07-25T10:58:45.406Z,96581.38
2022-07-25T11:01:15.715Z,96586.09
2022-07-25T11:03:45.671Z,96576.72
2022-07-25T11:06:15.193Z,96586.78
2022-07-25T11:08:43.922Z,96578.66
2022-07-25T11:11:12.856Z,96576.94
2022-07-25T11:13:41.358Z,96563.75
2022-07-25T11:16:10.732Z,96564.63
2022-07-25T11:18:41.639Z,96563.22
2022-07-25T11:21:10.448Z,96558.69
2022-07-25T11:23:38.508Z,96562.44
2022-07-25T11:26:08.406Z,96566.13
2022-07-25T11:28:41.019Z,96560.22
2022-07-25T11:31:09.123Z,96550.56
2022-07-25T11:33:38.747Z,96550.25
2022-07-25T11:36:10.718Z,96547.50
2022-07-25T11:38:39.297Z,96546.84
2022-07-25T11:41:07.904Z,96539.09
2022-07-25T11:43:35.968Z,96542.38
2022-07-25T11:46:06.667Z,96531.72
2022-07-25T11:48:37.062Z,96530.16
2022-07-25T11:51:18.280Z,96532.19
2022-07-25T11:53:49.737Z,96525.50
2022-07-25T11:56:41.264Z,96525.09
2022-07-25T11:59:08.728Z,96511.31
2022-07-25T12:01:38.750Z,96504.19
2022-07-25T12:04:14.539Z,96508.63
2022-07-25T12:06:44.625Z,96507.06
2022-07-25T12:09:19.072Z,96515.47
2022-07-25T12:11:48.839Z,96505.22
2022-07-25T12:14:17.182Z,96496.44
2022-07-25T12:16:45.285Z,96492.41
2022-07-25T12:19:20.436Z,96490.63
2022-07-25T12:21:49.884Z,96495.78
2022-07-25T12:24:17.996Z,96492.31
2022-07-25T12:26:46.113Z,96490.75
2022-07-25T12:29:38.977Z,96479.28
2022-07-25T12:32:07.775Z,96472.91
2022-07-25T12:34:35.871Z,96477.19
2022-07-25T12:37:05.307Z,96471.19
2022-07-25T12:39:33.608Z,96477.31
2022-07-25T12:42:01.655Z,96470.69
2022-07-25T12:44:29.877Z,96462.34
2022-07-25T12:46:57.990Z,96465.16
2022-07-25T12:49:26.147Z,96470.22
2022-07-25T12:51:58.058Z,96466.06
2022-07-25T12:54:27.760Z,96456.47
2022-07-25T12:56:55.904Z,96448.13
2022-07-25T12:59:24.283Z,96449.41
2022-07-25T13:01:52.500Z,96438.72
2022-07-25T13:04:20.683Z,96433.78
2022-07-25T13:06:48.797Z,96434.13
2022-07-25T13:09:16.999Z,96435.09
2022-07-25T13:11:46.423Z,96430.97
2022-07-25T13:14:16.085Z,96425.38
2022-07-25T13:16:44.347Z,96438.09
2022-07-25T13:19:12.568Z,96426.16
2022-07-25T13:21:40.679Z,96425.41
2022-07-25T13:24:09.101Z,96421.84
2022-07-25T13:26:37.955Z,96424.91
2022-07-25T13:29:09.585Z,96413.94
2022-07-25T13:31:38.578Z,96413.66
2022-07-25T13:34:07.113Z,96414.09
2022-07-25T13:36:35.968Z,96419.97
2022-07-25T13:39:04.793Z,96413.78
2022-07-25T13:41:33.500Z,96416.25
2022-07-25T13:44:01.608Z,96409.06
2022-07-25T13:46:31.091Z,96408.13
2022-07-25T13:48:59.389Z,96393.75
2022-07-25T13:51:27.629Z,96388.63
2022-07-25T13:53:55.916Z,96386.38
2022-07-25T13:56:23.999Z,96384.59
2022-07-25T13:58:52.225Z,96384.28
2022-07-25T14:01:20.394Z,96385.91
2022-07-25T14:03:49.990Z,96378.56
2022-07-25T14:06:18.079Z,96386.03
2022-07-25T14:08:46.166Z,96377.06
2022-07-25T14:11:14.628Z,96376.41
2022-07-25T14:13:43.542Z,96364.69
2022-07-25T14:16:11.814Z,96356.72
2022-07-25T14:18:39.972Z,96364.00
2022-07-25T14:21:09.421Z,96364.84
2022-07-25T14:23:37.560Z,96361.25
2022-07-25T14:26:05.746Z,96358.66
2022-07-25T14:28:33.911Z,96352.66
2022-07-25T14:31:01.968Z,96344.47
2022-07-25T14:33:30.033Z,96343.41
2022-07-25T14:35:58.081Z,96350.94
2022-07-25T14:38:27.607Z,96340.13
2022-07-25T14:40:55.636Z,96344.56
2022-07-25T14:43:23.726Z,96341.59
2022-07-25T14:45:51.808Z,96343.47
2022-07-25T14:48:19.999Z,96345.81
2022-07-25T14:50:48.161Z,96337.41
2022-07-25T14:53:16.302Z,96333.00
2022-07-25T14:55:45.768Z,96335.06
2022-07-25T14:58:15.472Z,96328.72
2022-07-25T15:00:43.872Z,96319.47
2022-07-25T15:03:11.970Z,96321.84
2022-07-25T15:05:40.053Z,96318.06
2022-07-25T15:08:08.328Z,96319.59
2022-07-25T15:10:36.472Z,96315.84
2022-07-25T15:13:30.035Z,96313.63
2022-07-25T15:15:54.015Z,96315.53
2022-07-25T15:18:22.176Z,96305.72
2022-07-25T15:20:51.898Z,96310.28
2022-07-25T15:23:21.374Z,96303.84
2022-07-25T15:26:04.909Z,96303.03
2022-07-25T15:28:35.657Z,96289.41
2022-07-25T15:31:03.798Z,96294.66
2022-07-25T15:33:31.899Z,96295.56
2022-07-25T15:36:00.281Z,96292.91
2022-07-25T15:38:28.998Z,96287.03
2022-07-25T15:40:57.561Z,96279.00
2022-07-25T15:43:25.745Z,96278.59
2022-07-25T15:45:55.172Z,96273.63
2022-07-25T15:48:23.679Z,96270.44
2022-07-25T15:50:52.576Z,96258.22
2022-07-25T15:53:20.680Z,96261.56
2022-07-25T15:55:48.843Z,96250.63
2022-07-25T15:58:17.002Z,96255.72
2022-07-25T16:00:45.259Z,96258.94
2022-07-25T16:03:14.902Z,96246.56
2022-07-25T16:05:44.604Z,96245.84
2022-07-25T16:08:12.733Z,96249.03
2022-07-25T16:10:40.783Z,96236.09
2022-07-25T16:13:08.866Z,96239.56
2022-07-25T16:15:36.921Z,96231.53
2022-07-25T16:18:05.179Z,96232.28
2022-07-25T16:20:35.343Z,96233.56
2022-07-25T16:23:03.449Z,96230.31
2022-07-25T16:25:56.765Z,96218.91
2022-07-25T16:28:24.959Z,96216.03
2022-07-25T16:30:53.022Z,96213.72
2022-07-25T16:33:21.106Z,96202.53
2022-07-25T16:35:50.508Z,96210.31
2022-07-25T16:38:18.614Z,96202.44
2022-07-25T16:40:46.753Z,96207.75
2022-07-25T16:43:15.218Z,96201.22
2022-07-25T16:45:43.306Z,96210.81
2022-07-25T16:48:11.752Z,96203.97
2022-07-25T16:50:40.049Z,96207.66
2022-07-25T16:53:09.480Z,96208.50
2022-07-25T16:55:37.634Z,96219.88
2022-07-25T16:58:05.841Z,96216.91
2022-07-25T17:00:34.042Z,96217.56
2022-07-25T17:03:02.193Z,96212.63
2022-07-25T17:05:30.296Z,96207.44
2022-07-25T17:07:59.813Z,96209.09
2022-07-25T17:10:29.992Z,96213.03
2022-07-25T17:12:58.372Z,96206.31
2022-07-25T17:15:26.471Z,96202.25
2022-07-25T17:17:54.927Z,96202.53
2022-07-25T17:20:23.039Z,96203.75
2022-07-25T17:22:51.133Z,96220.16
2022-07-25T17:25:19.273Z,96214.88
2022-07-25T17:27:48.758Z,96215.56
2022-07-25T17:30:16.861Z,96220.53
2022-07-25T17:32:45.073Z,96224.00
2022-07-25T17:35:13.471Z,96232.97
2022-07-25T17:37:41.844Z,96243.78
2022-07-25T17:40:11.219Z,96286.16
2022-07-25T17:42:44.726Z,96290.75
2022-07-25T17:45:15.475Z,96307.16
2022-07-25T17:47:44.346Z,96298.06
2022-07-25T17:50:12.652Z,96305.06
2022-07-25T17:52:40.881Z,96301.50
2022-07-25T17:55:09.729Z,96311.94
2022-07-25T17:57:37.843Z,96310.84
2022-07-25T18:00:07.142Z,96304.13
2022-07-25T18:02:41.149Z,96309.28
2022-07-25T18:05:10.133Z,96308.88
2022-07-25T18:07:40.707Z,96314.31
2022-07-25T18:10:09.368Z,96315.81
2022-07-25T18:12:37.414Z,96310.31
2022-07-25T18:15:07.584Z,96314.00
2022-07-25T18:17:36.217Z,96320.97
2022-07-25T18:20:06.132Z,96309.81
2022-07-25T18:22:34.186Z,96313.41
2022-07-25T18:25:02.286Z,96315.56
2022-07-25T18:27:30.341Z,96316.84
2022-07-25T18:29:58.482Z,96322.38
2022-07-25T18:32:26.562Z,96319.34
2022-07-25T18:34:54.623Z,96317.50
2022-07-25T18:37:24.024Z,96318.47
2022-07-25T18:39:52.085Z,96316.63
2022-07-25T18:42:20.182Z,96321.19
2022-07-25T18:44:48.409Z,96326.03
2022-07-25T18:47:16.972Z,96339.28
2022-07-25T18:49:45.910Z,96341.97
2022-07-25T18:52:13.940Z,96349.09
2022-07-25T18:54:43.433Z,96349.94
2022-07-25T18:57:11.552Z,96359.28
2022-07-25T18:59:39.806Z,96370.72
2022-07-25T19:02:07.893Z,96371.91
2022-07-25T19:04:36.119Z,96364.50
2022-07-25T19:07:04.246Z,96365.72
2022-07-25T19:09:32.295Z,96375.31
2022-07-25T19:12:02.221Z,96372.22
2022-07-25T19:14:30.772Z,96373.00
2022-07-25T19:16:59.352Z,96378.53
2022-07-25T19:19:27.671Z,96381.50
2022-07-25T19:21:55.766Z,96386.84
2022-07-25T19:24:24.201Z,96371.25
2022-07-25T19:26:52.523Z,96377.59
2022-07-25T19:29:21.962Z,96383.44
2022-07-25T19:31:50.171Z,96383.13
2022-07-25T19:34:18.320Z,96383.69
2022-07-25T19:36:46.514Z,96385.38
2022-07-25T19:39:14.792Z,96378.78
2022-07-25T19:41:46.895Z,96389.91
2022-07-25T19:44:15.518Z,96387.13
2022-07-25T19:46:45.105Z,96389.00
2022-07-25T19:49:13.290Z,96382.13
2022-07-25T19:51:41.585Z,96387.22
2022-07-25T19:54:10.140Z,96383.13
2022-07-25T19:56:38.588Z,96372.66
2022-07-25T19:59:06.768Z,96376.56
2022-07-25T20:01:36.063Z,96364.66
2022-07-25T20:04:09.074Z,96367.78
2022-07-25T20:06:37.542Z,96370.13
2022-07-25T20:09:06.633Z,96376.44
2022-07-25T20:11:34.949Z,96376.50
2022-07-25T20:14:03.048Z,96381.47
2022-07-25T20:16:31.408Z,96390.91
2022-07-25T20:19:00.308Z,96396.84
2022-07-25T20:21:29.787Z,96399.34
2022-07-25T20:23:58.314Z,96401.47
2022-07-25T20:26:26.448Z,96406.19
2022-07-25T20:28:55.203Z,96417.25
2022-07-25T20:31:24.393Z,96405.63
2022-07-25T20:33:52.772Z,96404.22
2022-07-25T20:36:20.930Z,96394.34
2022-07-25T20:38:50.493Z,96395.34
2022-07-25T20:41:18.647Z,96374.47
2022-07-25T20:43:47.170Z,96363.63
2022-07-25T20:46:15.359Z,96360.81
2022-07-25T20:48:43.562Z,96355.59
2022-07-25T20:51:13.044Z,96356.09
2022-07-25T20:53:41.928Z,96344.25
2022-07-25T20:56:11.383Z,96345.03
2022-07-25T20:58:40.013Z,96360.53
2022-07-25T21:01:08.145Z,96383.50
2022-07-25T21:03:36.455Z,96382.34
2022-07-25T21:06:04.736Z,96397.09
2022-07-25T21:08:32.875Z,96400.56
2022-07-25T21:11:01.353Z,96436.63
2022-07-25T21:13:32.966Z,96453.31
2022-07-25T21:16:01.412Z,96480.75
2022-07-25T21:18:29.530Z,96503.44
2022-07-25T21:20:57.622Z,96514.56
2022-07-25T21:23:26.430Z,96533.28
2022-07-25T21:25:54.493Z,96553.59
2022-07-25T21:28:22.684Z,96571.41
2022-07-25T21:30:52.394Z,96598.22
2022-07-25T21:33:20.464Z,96600.97
2022-07-25T21:35:53.166Z,96649.25
2022-07-25T21:38:26.865Z,96661.88
2022-07-25T21:40:56.724Z,96682.78
2022-07-25T21:43:25.051Z,96692.72
2022-07-25T21:45:54.607Z,96699.94
2022-07-25T21:48:42.955Z,96711.00
2022-07-25T21:51:10.313Z,96738.56
2022-07-25T21:53:47.763Z,96745.41
2022-07-25T21:56:16.300Z,96737.56
2022-07-25T21:58:44.716Z,96731.81
2022-07-25T22:01:14.194Z,96741.97
2022-07-25T22:03:42.417Z,96754.44
2022-07-25T22:06:11.207Z,96730.94
2022-07-25T22:08:39.792Z,96745.06
2022-07-25T22:11:16.347Z,96767.75
2022-07-25T22:13:55.974Z,96779.47
2022-07-25T22:16:25.420Z,96781.78
2022-07-25T22:18:53.503Z,96798.16
2022-07-25T22:21:45.992Z,96779.63
2022-07-25T22:24:14.149Z,96759.50
2022-07-25T22:26:42.227Z,96784.28
2022-07-25T22:29:10.982Z,96820.59
2022-07-25T22:31:40.866Z,96833.09
2022-07-25T22:34:09.298Z,96852.56
2022-07-25T22:36:37.347Z,96845.94
2022-07-25T22:39:06.030Z,96878.84
2022-07-25T22:41:34.819Z,96895.66
2022-07-25T22:44:02.917Z,96868.28
2022-07-25T22:46:32.119Z,96827.69
2022-07-25T22:49:02.542Z,96813.84
2022-07-25T22:51:30.638Z,96800.88
2022-07-25T22:53:59.913Z,96799.59
2022-07-25T22:56:28.862Z,96806.75
2022-07-25T22:58:57.116Z,96811.13
2022-07-25T23:01:25.533Z,96838.28
2022-07-25T23:03:53.677Z,96894.28
2022-07-25T23:06:23.649Z,96877.03
2022-07-25T23:08:51.773Z,96890.50
2022-07-25T23:11:19.795Z,96868.78
2022-07-25T23:13:47.867Z,96873.69
2022-07-25T23:16:16.060Z,96856.09
2022-07-25T23:18:44.078Z,96851.34
2022-07-25T23:21:12.276Z,96871.41
2022-07-25T23:23:41.689Z,96887.81
2022-07-25T23:26:09.845Z,96888.09
2022-07-25T23:28:38.066Z,96898.75
2022-07-25T23:31:06.293Z,96890.19
2022-07-25T23:33:34.357Z,96895.88
2022-07-25T23:36:02.552Z,96900.84
2022-07-25T23:38:30.755Z,96886.56
2022-07-25T23:41:00.153Z,96881.19
2022-07-25T23:43:53.830Z,96878.00
2022-07-25T23:46:16.361Z,96872.66
2022-07-25T23:48:46.346Z,96871.09
2022-07-25T23:51:16.584Z,96872.72
2022-07-25T23:53:44.693Z,96893.72
2022-07-25T23:56:20.180Z,96892.66
2022-07-25T23:58:50.035Z,96884.75
